sensor_id;sensor_type;location;lat;lon;timestamp;pressure;altitude;pressure_sealevel;temperature;humidity
45357;BME280;31092;51.924;21.448;2023-07-08T00:01:14;100812.94;;;9.72;100.00
45357;BME280;31092;51.924;21.448;2023-07-08T00:03:41;100815.94;;;9.69;100.00
45357;BME280;31092;51.924;21.448;2023-07-08T00:06:18;100799.81;;;9.59;100.00
45357;BME280;31092;51.924;21.448;2023-07-08T00:08:44;100727.34;;;9.11;100.00
45357;BME280;31092;51.924;21.448;2023-07-08T00:11:11;100805.78;;;9.53;100.00
45357;BME280;31092;51.924;21.448;2023-07-08T00:13:36;100729.75;;;9.04;100.00
45357;BME280;31092;51.924;21.448;2023-07-08T00:16:02;100822.47;;;9.57;100.00
45357;BME280;31092;51.924;21.448;2023-07-08T00:18:27;100752.78;;;9.17;100.00
45357;BME280;31092;51.924;21.448;2023-07-08T00:20:53;100801.38;;;9.52;100.00
45357;BME280;31092;51.924;21.448;2023-07-08T00:23:18;100719.97;;;9.03;100.00
45357;BME280;31092;51.924;21.448;2023-07-08T00:25:47;100818.22;;;9.54;100.00
45357;BME280;31092;51.924;21.448;2023-07-08T00:28:18;100817.38;;;9.54;100.00
45357;BME280;31092;51.924;21.448;2023-07-08T00:30:45;100723.28;;;8.97;100.00
45357;BME280;31092;51.924;21.448;2023-07-08T00:33:10;100822.22;;;9.50;100.00
45357;BME280;31092;51.924;21.448;2023-07-08T00:35:41;100733.84;;;8.99;100.00
45357;BME280;31092;51.924;21.448;2023-07-08T00:38:26;100830.41;;;9.58;100.00
45357;BME280;31092;51.924;21.448;2023-07-08T00:43:33;100818.91;;;9.56;100.00
45357;BME280;31092;51.924;21.448;2023-07-08T00:48:49;100737.66;;;9.06;100.00
45357;BME280;31092;51.924;21.448;2023-07-08T00:51:18;100781.03;;;9.40;100.00
45357;BME280;31092;51.924;21.448;2023-07-08T00:53:44;100793.03;;;9.46;100.00
45357;BME280;31092;51.924;21.448;2023-07-08T00:56:22;100789.22;;;9.39;100.00
45357;BME280;31092;51.924;21.448;2023-07-08T00:59:02;100698.38;;;8.85;100.00
45357;BME280;31092;51.924;21.448;2023-07-08T01:01:31;100772.44;;;9.27;100.00
45357;BME280;31092;51.924;21.448;2023-07-08T01:04:07;100722.16;;;8.90;100.00
45357;BME280;31092;51.924;21.448;2023-07-08T01:06:36;100719.19;;;8.93;100.00
45357;BME280;31092;51.924;21.448;2023-07-08T01:09:06;100725.53;;;8.92;100.00
45357;BME280;31092;51.924;21.448;2023-07-08T01:11:34;100724.41;;;8.95;100.00
45357;BME280;31092;51.924;21.448;2023-07-08T01:14:01;100707.31;;;8.86;100.00
45357;BME280;31092;51.924;21.448;2023-07-08T01:16:28;100787.84;;;9.34;100.00
45357;BME280;31092;51.924;21.448;2023-07-08T01:18:55;100732.00;;;8.99;100.00
45357;BME280;31092;51.924;21.448;2023-07-08T01:21:33;100708.72;;;8.90;100.00
45357;BME280;31092;51.924;21.448;2023-07-08T01:24:01;100787.84;;;9.34;100.00
45357;BME280;31092;51.924;21.448;2023-07-08T01:26:28;100787.28;;;9.31;100.00
45357;BME280;31092;51.924;21.448;2023-07-08T01:28:55;100813.44;;;9.39;100.00
45357;BME280;31092;51.924;21.448;2023-07-08T01:31:22;100728.50;;;8.89;100.00
45357;BME280;31092;51.924;21.448;2023-07-08T01:33:49;100811.19;;;9.34;100.00
45357;BME280;31092;51.924;21.448;2023-07-08T01:36:16;100813.16;;;9.32;100.00
45357;BME280;31092;51.924;21.448;2023-07-08T01:38:43;100781.66;;;9.15;100.00
45357;BME280;31092;51.924;21.448;2023-07-08T01:41:14;100767.38;;;9.04;100.00
45357;BME280;31092;51.924;21.448;2023-07-08T01:43:40;100817.56;;;9.33;100.00
45357;BME280;31092;51.924;21.448;2023-07-08T01:46:21;100782.06;;;9.10;100.00
45357;BME280;31092;51.924;21.448;2023-07-08T01:48:56;100807.81;;;9.22;100.00
45357;BME280;31092;51.924;21.448;2023-07-08T01:51:23;100797.47;;;9.18;100.00
45357;BME280;31092;51.924;21.448;2023-07-08T01:53:49;100827.31;;;9.24;100.00
45357;BME280;31092;51.924;21.448;2023-07-08T01:56:15;100833.97;;;9.30;100.00
45357;BME280;31092;51.924;21.448;2023-07-08T01:58:41;100815.88;;;9.22;100.00
45357;BME280;31092;51.924;21.448;2023-07-08T02:01:07;100734.28;;;8.75;100.00
45357;BME280;31092;51.924;21.448;2023-07-08T02:03:33;100819.25;;;9.24;100.00
45357;BME280;31092;51.924;21.448;2023-07-08T02:05:58;100815.03;;;9.22;100.00
45357;BME280;31092;51.924;21.448;2023-07-08T02:08:24;100816.00;;;9.21;100.00
45357;BME280;31092;51.924;21.448;2023-07-08T02:10:56;100774.88;;;8.91;100.00
45357;BME280;31092;51.924;21.448;2023-07-08T02:13:22;100723.41;;;8.57;100.00
45357;BME280;31092;51.924;21.448;2023-07-08T02:15:49;100809.50;;;9.14;100.00
45357;BME280;31092;51.924;21.448;2023-07-08T02:18:14;100810.06;;;9.17;100.00
45357;BME280;31092;51.924;21.448;2023-07-08T02:20:40;100734.59;;;8.72;100.00
45357;BME280;31092;51.924;21.448;2023-07-08T02:23:07;100723.28;;;8.58;100.00
45357;BME280;31092;51.924;21.448;2023-07-08T02:25:32;100739.09;;;8.71;100.00
45357;BME280;31092;51.924;21.448;2023-07-08T02:27:58;100791.56;;;8.95;100.00
45357;BME280;31092;51.924;21.448;2023-07-08T02:30:24;100727.25;;;8.54;100.00
45357;BME280;31092;51.924;21.448;2023-07-08T02:32:49;100809.53;;;8.94;100.00
45357;BME280;31092;51.924;21.448;2023-07-08T02:35:21;100811.09;;;8.97;100.00
45357;BME280;31092;51.924;21.448;2023-07-08T02:37:47;100821.41;;;9.01;100.00
45357;BME280;31092;51.924;21.448;2023-07-08T02:40:13;100643.94;;;7.96;100.00
45357;BME280;31092;51.924;21.448;2023-07-08T02:42:39;100739.53;;;8.47;100.00
45357;BME280;31092;51.924;21.448;2023-07-08T02:45:05;100790.41;;;8.78;100.00
45357;BME280;31092;51.924;21.448;2023-07-08T02:47:31;100823.66;;;8.96;100.00
45357;BME280;31092;51.924;21.448;2023-07-08T02:49:56;100732.03;;;8.41;100.00
45357;BME280;31092;51.924;21.448;2023-07-08T02:52:22;100736.84;;;8.37;100.00
45357;BME280;31092;51.924;21.448;2023-07-08T02:54:47;100723.38;;;8.28;100.00
45357;BME280;31092;51.924;21.448;2023-07-08T02:57:13;100808.81;;;8.82;100.00
45357;BME280;31092;51.924;21.448;2023-07-08T02:59:38;100773.59;;;8.66;100.00
45357;BME280;31092;51.924;21.448;2023-07-08T03:02:05;100805.41;;;8.80;100.00
45357;BME280;31092;51.924;21.448;2023-07-08T03:04:31;100804.97;;;8.85;100.00
45357;BME280;31092;51.924;21.448;2023-07-08T03:06:56;100734.88;;;8.39;100.00
45357;BME280;31092;51.924;21.448;2023-07-08T03:09:22;100816.72;;;8.84;100.00
45357;BME280;31092;51.924;21.448;2023-07-08T03:11:47;100727.06;;;8.36;100.00
45357;BME280;31092;51.924;21.448;2023-07-08T03:14:13;100796.63;;;8.78;100.00
45357;BME280;31092;51.924;21.448;2023-07-08T03:16:38;100754.50;;;8.40;100.00
45357;BME280;31092;51.924;21.448;2023-07-08T03:19:04;100799.63;;;8.85;100.00
45357;BME280;31092;51.924;21.448;2023-07-08T03:21:30;100821.53;;;9.00;100.00
45357;BME280;31092;51.924;21.448;2023-07-08T03:23:56;100819.28;;;9.05;100.00
45357;BME280;31092;51.924;21.448;2023-07-08T03:26:24;100831.28;;;9.10;100.00
45357;BME280;31092;51.924;21.448;2023-07-08T03:28:50;100836.81;;;9.09;100.00
45357;BME280;31092;51.924;21.448;2023-07-08T03:31:16;100752.69;;;8.70;100.00
45357;BME280;31092;51.924;21.448;2023-07-08T03:33:42;100748.88;;;8.72;100.00
45357;BME280;31092;51.924;21.448;2023-07-08T03:36:11;100751.41;;;8.83;100.00
45357;BME280;31092;51.924;21.448;2023-07-08T03:38:38;100815.88;;;9.22;100.00
45357;BME280;31092;51.924;21.448;2023-07-08T03:41:04;100809.06;;;9.28;100.00
45357;BME280;31092;51.924;21.448;2023-07-08T03:43:30;100834.94;;;9.48;100.00
45357;BME280;31092;51.924;21.448;2023-07-08T03:45:55;100813.97;;;9.52;100.00
45357;BME280;31092;51.924;21.448;2023-07-08T03:48:21;100748.69;;;9.22;100.00
45357;BME280;31092;51.924;21.448;2023-07-08T03:50:48;100832.47;;;9.74;100.00
45357;BME280;31092;51.924;21.448;2023-07-08T03:53:13;100813.34;;;9.77;100.00
45357;BME280;31092;51.924;21.448;2023-07-08T03:55:39;100833.09;;;9.96;100.00
45357;BME280;31092;51.924;21.448;2023-07-08T03:58:04;100741.63;;;9.58;100.00
45357;BME280;31092;51.924;21.448;2023-07-08T04:00:30;100772.78;;;9.89;100.00
45357;BME280;31092;51.924;21.448;2023-07-08T04:02:55;100829.03;;;10.29;100.00
45357;BME280;31092;51.924;21.448;2023-07-08T04:05:22;100828.97;;;10.39;100.00
45357;BME280;31092;51.924;21.448;2023-07-08T04:07:48;100743.03;;;10.00;100.00
45357;BME280;31092;51.924;21.448;2023-07-08T04:10:14;100743.19;;;10.16;100.00
45357;BME280;31092;51.924;21.448;2023-07-08T04:12:40;100815.88;;;10.71;100.00
45357;BME280;31092;51.924;21.448;2023-07-08T04:15:10;100805.19;;;10.79;100.00
45357;BME280;31092;51.924;21.448;2023-07-08T04:17:40;100819.91;;;11.03;100.00
45357;BME280;31092;51.924;21.448;2023-07-08T04:20:09;100810.88;;;11.12;100.00
45357;BME280;31092;51.924;21.448;2023-07-08T04:22:36;100735.13;;;10.79;100.00
45357;BME280;31092;51.924;21.448;2023-07-08T04:25:02;100728.16;;;10.95;100.00
45357;BME280;31092;51.924;21.448;2023-07-08T04:27:31;100812.09;;;11.62;100.00
45357;BME280;31092;51.924;21.448;2023-07-08T04:29:57;100731.25;;;11.26;100.00
45357;BME280;31092;51.924;21.448;2023-07-08T04:32:22;100780.28;;;11.73;100.00
45357;BME280;31092;51.924;21.448;2023-07-08T04:34:50;100790.56;;;11.96;100.00
45357;BME280;31092;51.924;21.448;2023-07-08T04:37:48;100823.63;;;12.32;100.00
45357;BME280;31092;51.924;21.448;2023-07-08T04:41:16;100820.63;;;12.52;100.00
45357;BME280;31092;51.924;21.448;2023-07-08T04:46:35;100802.16;;;12.81;100.00
45357;BME280;31092;51.924;21.448;2023-07-08T04:49:14;100731.00;;;12.56;100.00
45357;BME280;31092;51.924;21.448;2023-07-08T04:52:08;100768.19;;;12.95;100.00
45357;BME280;31092;51.924;21.448;2023-07-08T04:54:33;100800.50;;;13.37;100.00
45357;BME280;31092;51.924;21.448;2023-07-08T04:56:59;100726.44;;;13.06;100.00
45357;BME280;31092;51.924;21.448;2023-07-08T04:59:25;100800.63;;;13.69;100.00
45357;BME280;31092;51.924;21.448;2023-07-08T05:01:52;100785.50;;;13.90;100.00
45357;BME280;31092;51.924;21.448;2023-07-08T05:04:23;100776.47;;;14.06;100.00
45357;BME280;31092;51.924;21.448;2023-07-08T05:06:49;100739.59;;;14.05;100.00
45357;BME280;31092;51.924;21.448;2023-07-08T05:09:18;100784.22;;;14.57;100.00
45357;BME280;31092;51.924;21.448;2023-07-08T05:17:38;100711.28;;;15.08;100.00
45357;BME280;31092;51.924;21.448;2023-07-08T05:20:06;100748.63;;;15.59;100.00
45357;BME280;31092;51.924;21.448;2023-07-08T05:22:33;100788.75;;;16.01;100.00
45357;BME280;31092;51.924;21.448;2023-07-08T05:25:05;100787.28;;;16.35;100.00
45357;BME280;31092;51.924;21.448;2023-07-08T05:27:31;100723.19;;;16.25;100.00
45357;BME280;31092;51.924;21.448;2023-07-08T05:30:00;100721.16;;;16.49;100.00
45357;BME280;31092;51.924;21.448;2023-07-08T05:32:26;100780.81;;;17.08;100.00
45357;BME280;31092;51.924;21.448;2023-07-08T05:34:52;100776.63;;;17.34;100.00
45357;BME280;31092;51.924;21.448;2023-07-08T05:37:18;100790.03;;;17.63;100.00
45357;BME280;31092;51.924;21.448;2023-07-08T05:39:49;100777.75;;;17.74;100.00
45357;BME280;31092;51.924;21.448;2023-07-08T05:42:14;100759.81;;;17.80;100.00
45357;BME280;31092;51.924;21.448;2023-07-08T05:44:52;100790.84;;;18.20;100.00
45357;BME280;31092;51.924;21.448;2023-07-08T05:47:23;100776.22;;;18.34;100.00
45357;BME280;31092;51.924;21.448;2023-07-08T05:49:49;100779.06;;;18.61;100.00
45357;BME280;31092;51.924;21.448;2023-07-08T05:52:14;100726.41;;;18.74;100.00
45357;BME280;31092;51.924;21.448;2023-07-08T05:54:41;100795.69;;;20.12;100.00
45357;BME280;31092;51.924;21.448;2023-07-08T05:57:17;100753.00;;;20.04;100.00
45357;BME280;31092;51.924;21.448;2023-07-08T05:59:42;100726.22;;;19.68;100.00
45357;BME280;31092;51.924;21.448;2023-07-08T06:02:20;100787.06;;;20.08;100.00
45357;BME280;31092;51.924;21.448;2023-07-08T06:04:48;100689.50;;;20.02;100.00
45357;BME280;31092;51.924;21.448;2023-07-08T06:07:14;100716.16;;;20.59;100.00
45357;BME280;31092;51.924;21.448;2023-07-08T06:09:47;100757.81;;;20.67;100.00
45357;BME280;31092;51.924;21.448;2023-07-08T06:12:13;100764.16;;;20.61;100.00
45357;BME280;31092;51.924;21.448;2023-07-08T06:14:38;100721.34;;;20.35;100.00
45357;BME280;31092;51.924;21.448;2023-07-08T06:17:04;100780.69;;;20.79;100.00
45357;BME280;31092;51.924;21.448;2023-07-08T06:19:30;100697.81;;;20.66;100.00
45357;BME280;31092;51.924;21.448;2023-07-08T06:21:56;100754.56;;;22.02;100.00
45357;BME280;31092;51.924;21.448;2023-07-08T06:24:21;100732.72;;;22.44;100.00
45357;BME280;31092;51.924;21.448;2023-07-08T06:26:47;100746.47;;;22.26;100.00
45357;BME280;31092;51.924;21.448;2023-07-08T06:29:13;100690.56;;;21.90;100.00
45357;BME280;31092;51.924;21.448;2023-07-08T06:31:46;100702.72;;;23.03;100.00
45357;BME280;31092;51.924;21.448;2023-07-08T06:34:11;100694.16;;;23.34;100.00
45357;BME280;31092;51.924;21.448;2023-07-08T06:36:37;100687.78;;;23.10;100.00
45357;BME280;31092;51.924;21.448;2023-07-08T06:39:03;100701.81;;;22.90;100.00
45357;BME280;31092;51.924;21.448;2023-07-08T06:41:28;100760.16;;;23.04;100.00
45357;BME280;31092;51.924;21.448;2023-07-08T06:43:54;100757.53;;;22.98;100.00
45357;BME280;31092;51.924;21.448;2023-07-08T06:46:20;100678.56;;;22.93;100.00
45357;BME280;31092;51.924;21.448;2023-07-08T06:48:45;100740.25;;;24.03;100.00
45357;BME280;31092;51.924;21.448;2023-07-08T06:51:11;100716.44;;;23.97;100.00
45357;BME280;31092;51.924;21.448;2023-07-08T06:53:37;100669.28;;;24.05;100.00
45357;BME280;31092;51.924;21.448;2023-07-08T06:56:02;100694.47;;;24.25;100.00
45357;BME280;31092;51.924;21.448;2023-07-08T06:58:28;100674.25;;;23.91;100.00
45357;BME280;31092;51.924;21.448;2023-07-08T07:00:53;100747.75;;;24.07;100.00
45357;BME280;31092;51.924;21.448;2023-07-08T07:03:19;100737.84;;;24.06;100.00
45357;BME280;31092;51.924;21.448;2023-07-08T07:05:44;100704.75;;;23.89;100.00
45357;BME280;31092;51.924;21.448;2023-07-08T07:08:10;100727.50;;;24.25;100.00
45357;BME280;31092;51.924;21.448;2023-07-08T07:10:36;100739.44;;;24.43;100.00
45357;BME280;31092;51.924;21.448;2023-07-08T07:13:01;100656.59;;;24.04;100.00
45357;BME280;31092;51.924;21.448;2023-07-08T07:15:27;100676.81;;;24.38;100.00
45357;BME280;31092;51.924;21.448;2023-07-08T07:17:52;100722.78;;;24.95;100.00
45357;BME280;31092;51.924;21.448;2023-07-08T07:20:18;100699.31;;;24.92;100.00
45357;BME280;31092;51.924;21.448;2023-07-08T07:22:43;100713.06;;;24.75;100.00
45357;BME280;31092;51.924;21.448;2023-07-08T07:25:09;100713.72;;;24.66;100.00
45357;BME280;31092;51.924;21.448;2023-07-08T07:27:35;100664.53;;;24.29;100.00
45357;BME280;31092;51.924;21.448;2023-07-08T07:30:00;100725.75;;;24.93;100.00
45357;BME280;31092;51.924;21.448;2023-07-08T07:32:26;100717.09;;;25.18;100.00
45357;BME280;31092;51.924;21.448;2023-07-08T07:34:52;100721.13;;;25.44;100.00
45357;BME280;31092;51.924;21.448;2023-07-08T07:37:20;100669.19;;;25.19;100.00
45357;BME280;31092;51.924;21.448;2023-07-08T07:39:46;100640.94;;;24.95;100.00
45357;BME280;31092;51.924;21.448;2023-07-08T07:42:14;100737.66;;;25.44;100.00
45357;BME280;31092;51.924;21.448;2023-07-08T07:44:40;100682.31;;;25.12;100.00
45357;BME280;31092;51.924;21.448;2023-07-08T07:47:07;100670.59;;;25.05;99.51
45357;BME280;31092;51.924;21.448;2023-07-08T07:49:32;100734.81;;;25.56;100.00
45357;BME280;31092;51.924;21.448;2023-07-08T07:51:58;100734.63;;;25.79;100.00
45357;BME280;31092;51.924;21.448;2023-07-08T07:54:24;100691.13;;;25.87;99.15
45357;BME280;31092;51.924;21.448;2023-07-08T07:56:50;100690.66;;;26.17;98.42
45357;BME280;31092;51.924;21.448;2023-07-08T07:59:16;100686.16;;;26.33;96.94
45357;BME280;31092;51.924;21.448;2023-07-08T08:01:41;100693.00;;;26.52;96.22
45357;BME280;31092;51.924;21.448;2023-07-08T08:04:09;100732.75;;;26.78;93.72
45357;BME280;31092;51.924;21.448;2023-07-08T08:06:34;100694.72;;;26.58;94.41
45357;BME280;31092;51.924;21.448;2023-07-08T08:09:00;100695.38;;;26.70;94.79
45357;BME280;31092;51.924;21.448;2023-07-08T08:11:26;100720.06;;;26.77;92.11
45357;BME280;31092;51.924;21.448;2023-07-08T08:13:52;100732.38;;;26.96;92.78
45357;BME280;31092;51.924;21.448;2023-07-08T08:16:18;100740.97;;;27.00;90.36
45357;BME280;31092;51.924;21.448;2023-07-08T08:18:44;100720.47;;;26.91;91.30
45357;BME280;31092;51.924;21.448;2023-07-08T08:21:09;100695.22;;;26.82;89.53
45357;BME280;31092;51.924;21.448;2023-07-08T08:23:35;100666.81;;;26.87;90.14
45357;BME280;31092;51.924;21.448;2023-07-08T08:26:00;100748.06;;;27.50;89.73
45357;BME280;31092;51.924;21.448;2023-07-08T08:28:26;100730.25;;;27.36;86.87
45357;BME280;31092;51.924;21.448;2023-07-08T08:30:51;100712.59;;;27.10;83.13
45357;BME280;31092;51.924;21.448;2023-07-08T08:33:18;100754.56;;;27.34;84.60
45357;BME280;31092;51.924;21.448;2023-07-08T08:35:44;100679.38;;;27.05;84.86
45357;BME280;31092;51.924;21.448;2023-07-08T08:38:10;100678.25;;;27.33;86.30
45357;BME280;31092;51.924;21.448;2023-07-08T08:40:36;100697.69;;;27.48;84.75
45357;BME280;31092;51.924;21.448;2023-07-08T08:43:09;100662.78;;;27.37;83.61
45357;BME280;31092;51.924;21.448;2023-07-08T08:45:45;100737.78;;;27.83;84.27
45357;BME280;31092;51.924;21.448;2023-07-08T08:48:15;100697.47;;;27.60;81.91
45357;BME280;31092;51.924;21.448;2023-07-08T08:50:57;100727.38;;;27.58;77.79
45357;BME280;31092;51.924;21.448;2023-07-08T08:53:26;100689.31;;;27.01;76.81
45357;BME280;31092;51.924;21.448;2023-07-08T08:56:00;100742.47;;;27.40;79.55
45357;BME280;31092;51.924;21.448;2023-07-08T09:00:58;100719.16;;;27.73;81.45
45357;BME280;31092;51.924;21.448;2023-07-08T09:03:57;100756.88;;;27.79;77.91
45357;BME280;31092;51.924;21.448;2023-07-08T09:06:29;100741.91;;;27.80;81.79
45357;BME280;31092;51.924;21.448;2023-07-08T09:08:57;100745.47;;;28.28;83.17
45357;BME280;31092;51.924;21.448;2023-07-08T09:11:48;100696.38;;;28.13;81.33
45357;BME280;31092;51.924;21.448;2023-07-08T09:14:24;100655.97;;;27.60;80.02
45357;BME280;31092;51.924;21.448;2023-07-08T09:19:26;100744.91;;;26.77;80.77
45357;BME280;31092;51.924;21.448;2023-07-08T09:22:05;100752.34;;;26.27;80.33
45357;BME280;31092;51.924;21.448;2023-07-08T09:26:59;100653.59;;;26.94;86.79
45357;BME280;31092;51.924;21.448;2023-07-08T09:29:26;100679.22;;;27.59;82.77
45357;BME280;31092;51.924;21.448;2023-07-08T09:31:52;100672.09;;;27.73;79.96
45357;BME280;31092;51.924;21.448;2023-07-08T09:34:21;100670.63;;;27.55;78.99
45357;BME280;31092;51.924;21.448;2023-07-08T09:36:49;100701.03;;;27.13;77.57
45357;BME280;31092;51.924;21.448;2023-07-08T09:39:19;100742.78;;;26.84;77.45
45357;BME280;31092;51.924;21.448;2023-07-08T09:41:48;100752.72;;;26.85;78.37
45357;BME280;31092;51.924;21.448;2023-07-08T09:44:28;100674.50;;;26.85;79.44
45357;BME280;31092;51.924;21.448;2023-07-08T09:46:58;100737.28;;;27.96;81.38
45357;BME280;31092;51.924;21.448;2023-07-08T09:49:32;100661.56;;;27.65;78.22
45357;BME280;31092;51.924;21.448;2023-07-08T09:51:59;100665.34;;;27.11;76.25
45357;BME280;31092;51.924;21.448;2023-07-08T09:54:26;100650.25;;;26.33;76.56
45357;BME280;31092;51.924;21.448;2023-07-08T09:57:11;100709.16;;;26.16;78.31
45357;BME280;31092;51.924;21.448;2023-07-08T09:59:42;100657.38;;;25.79;78.88
45357;BME280;31092;51.924;21.448;2023-07-08T10:02:26;100709.56;;;26.79;77.56
45357;BME280;31092;51.924;21.448;2023-07-08T10:04:54;100720.28;;;27.35;74.32
45357;BME280;31092;51.924;21.448;2023-07-08T10:07:20;100654.72;;;27.35;75.63
45357;BME280;31092;51.924;21.448;2023-07-08T10:09:54;100669.59;;;27.72;72.46
45357;BME280;31092;51.924;21.448;2023-07-08T10:12:22;100700.75;;;27.99;68.86
45357;BME280;31092;51.924;21.448;2023-07-08T10:14:52;100726.31;;;27.69;70.71
45357;BME280;31092;51.924;21.448;2023-07-08T10:17:20;100720.88;;;27.42;72.03
45357;BME280;31092;51.924;21.448;2023-07-08T10:19:47;100675.72;;;26.94;73.75
45357;BME280;31092;51.924;21.448;2023-07-08T10:25:03;100704.31;;;26.28;77.04
45357;BME280;31092;51.924;21.448;2023-07-08T10:30:38;100699.84;;;27.36;73.45
45357;BME280;31092;51.924;21.448;2023-07-08T10:44:43;100648.53;;;27.65;68.08
45357;BME280;31092;51.924;21.448;2023-07-08T10:47:28;100711.81;;;27.47;69.74
45357;BME280;31092;51.924;21.448;2023-07-08T10:53:16;100668.44;;;27.57;64.77
45357;BME280;31092;51.924;21.448;2023-07-08T10:56:16;100656.31;;;27.68;60.69
45357;BME280;31092;51.924;21.448;2023-07-08T11:06:43;100672.44;;;28.65;63.94
45357;BME280;31092;51.924;21.448;2023-07-08T11:09:11;100668.03;;;29.00;62.20
45357;BME280;31092;51.924;21.448;2023-07-08T11:11:44;100618.91;;;28.85;63.46
45357;BME280;31092;51.924;21.448;2023-07-08T11:14:16;100645.56;;;29.01;58.39
45357;BME280;31092;51.924;21.448;2023-07-08T11:16:48;100657.19;;;29.19;57.94
45357;BME280;31092;51.924;21.448;2023-07-08T11:19:21;100654.69;;;28.97;54.96
45357;BME280;31092;51.924;21.448;2023-07-08T11:22:08;100663.84;;;29.18;56.27
45357;BME280;31092;51.924;21.448;2023-07-08T11:24:47;100663.53;;;29.40;56.55
45357;BME280;31092;51.924;21.448;2023-07-08T11:27:21;100551.25;;;28.96;56.43
45357;BME280;31092;51.924;21.448;2023-07-08T11:29:50;100666.81;;;29.67;55.33
45357;BME280;31092;51.924;21.448;2023-07-08T11:32:19;100580.91;;;29.21;56.33
45357;BME280;31092;51.924;21.448;2023-07-08T11:34:48;100589.53;;;29.04;54.27
45357;BME280;31092;51.924;21.448;2023-07-08T11:37:15;100563.50;;;28.70;53.16
45357;BME280;31092;51.924;21.448;2023-07-08T11:39:45;100651.09;;;29.22;54.41
45357;BME280;31092;51.924;21.448;2023-07-08T11:42:17;100614.75;;;29.03;55.09
45357;BME280;31092;51.924;21.448;2023-07-08T11:44:50;100565.69;;;28.88;56.18
45357;BME280;31092;51.924;21.448;2023-07-08T11:49:51;100579.78;;;29.17;54.76
45357;BME280;31092;51.924;21.448;2023-07-08T11:52:20;100658.88;;;29.04;52.37
45357;BME280;31092;51.924;21.448;2023-07-08T11:54:48;100615.88;;;28.51;52.59
45357;BME280;31092;51.924;21.448;2023-07-08T11:57:38;100648.88;;;28.73;53.18
45357;BME280;31092;51.924;21.448;2023-07-08T12:00:19;100647.75;;;28.79;53.06
45357;BME280;31092;51.924;21.448;2023-07-08T12:02:54;100590.09;;;28.55;52.42
45357;BME280;31092;51.924;21.448;2023-07-08T12:05:34;100641.09;;;29.16;55.51
45357;BME280;31092;51.924;21.448;2023-07-08T12:08:01;100643.03;;;28.79;53.80
45357;BME280;31092;51.924;21.448;2023-07-08T12:10:36;100619.09;;;27.97;56.51
45357;BME280;31092;51.924;21.448;2023-07-08T12:13:13;100636.88;;;28.31;60.28
45357;BME280;31092;51.924;21.448;2023-07-08T12:15:39;100555.41;;;28.17;57.46
45357;BME280;31092;51.924;21.448;2023-07-08T12:20:54;100579.25;;;28.95;55.56
45357;BME280;31092;51.924;21.448;2023-07-08T12:23:24;100624.72;;;29.19;54.48
45357;BME280;31092;51.924;21.448;2023-07-08T12:25:50;100616.38;;;29.24;54.66
45357;BME280;31092;51.924;21.448;2023-07-08T12:28:17;100623.03;;;29.39;55.19
45357;BME280;31092;51.924;21.448;2023-07-08T12:30:44;100484.75;;;28.86;55.61
45357;BME280;31092;51.924;21.448;2023-07-08T12:33:17;100620.16;;;29.69;54.39
45357;BME280;31092;51.924;21.448;2023-07-08T12:35:44;100605.72;;;29.72;55.51
45357;BME280;31092;51.924;21.448;2023-07-08T12:38:23;100615.19;;;29.56;53.26
45357;BME280;31092;51.924;21.448;2023-07-08T12:40:53;100598.78;;;29.70;56.70
45357;BME280;31092;51.924;21.448;2023-07-08T12:43:18;100530.25;;;29.55;55.93
45357;BME280;31092;51.924;21.448;2023-07-08T12:45:44;100599.75;;;29.99;56.72
45357;BME280;31092;51.924;21.448;2023-07-08T12:48:10;100624.47;;;29.16;55.06
45357;BME280;31092;51.924;21.448;2023-07-08T12:50:35;100626.06;;;28.30;59.05
45357;BME280;31092;51.924;21.448;2023-07-08T12:53:05;100605.47;;;27.80;59.57
45357;BME280;31092;51.924;21.448;2023-07-08T12:55:37;100595.22;;;27.85;61.20
45357;BME280;31092;51.924;21.448;2023-07-08T12:58:04;100628.84;;;28.25;60.34
45357;BME280;31092;51.924;21.448;2023-07-08T13:00:33;100562.47;;;27.67;59.67
45357;BME280;31092;51.924;21.448;2023-07-08T13:03:23;100626.69;;;27.69;59.87
45357;BME280;31092;51.924;21.448;2023-07-08T13:05:48;100597.44;;;27.31;62.62
45357;BME280;31092;51.924;21.448;2023-07-08T13:08:15;100618.53;;;27.42;64.59
45357;BME280;31092;51.924;21.448;2023-07-08T13:10:43;100543.25;;;27.35;66.07
45357;BME280;31092;51.924;21.448;2023-07-08T13:13:36;100612.44;;;28.03;64.74
45357;BME280;31092;51.924;21.448;2023-07-08T13:16:03;100607.22;;;28.11;63.35
45357;BME280;31092;51.924;21.448;2023-07-08T13:18:36;100535.25;;;27.38;62.95
45357;BME280;31092;51.924;21.448;2023-07-08T13:21:04;100602.97;;;27.31;63.72
45357;BME280;31092;51.924;21.448;2023-07-08T13:23:31;100596.09;;;26.96;65.36
45357;BME280;31092;51.924;21.448;2023-07-08T13:25:57;100597.09;;;26.80;67.06
45357;BME280;31092;51.924;21.448;2023-07-08T13:28:37;100595.78;;;26.92;66.16
45357;BME280;31092;51.924;21.448;2023-07-08T13:31:14;100535.25;;;26.91;66.95
45357;BME280;31092;51.924;21.448;2023-07-08T13:33:46;100588.50;;;27.71;66.51
45357;BME280;31092;51.924;21.448;2023-07-08T13:36:13;100538.47;;;27.83;65.79
45357;BME280;31092;51.924;21.448;2023-07-08T13:38:39;100538.81;;;28.32;67.21
45357;BME280;31092;51.924;21.448;2023-07-08T13:41:07;100524.16;;;28.42;64.90
45357;BME280;31092;51.924;21.448;2023-07-08T13:43:35;100494.19;;;27.98;63.40